sensor_id;sensor_type;location;lat;lon;timestamp;P1;durP1;ratioP1;P2;durP2;ratioP2
15183;SDS011;7693;49.266;7.104;2023-02-04T05:49:56;1.90;;;1.90;;
15183;SDS011;7693;49.266;7.104;2023-02-04T05:52:21;1.60;;;1.60;;
15183;SDS011;7693;49.266;7.104;2023-02-04T05:54:47;2.43;;;2.27;;
15183;SDS011;7693;49.266;7.104;2023-02-04T05:57:12;2.17;;;2.07;;
15183;SDS011;7693;49.266;7.104;2023-02-04T05:59:38;2.03;;;2.00;;
15183;SDS011;7693;49.266;7.104;2023-02-04T06:02:03;1.97;;;1.87;;
15183;SDS011;7693;49.266;7.104;2023-02-04T06:04:29;2.27;;;2.17;;
15183;SDS011;7693;49.266;7.104;2023-02-04T06:06:54;3.13;;;2.40;;
15183;SDS011;7693;49.266;7.104;2023-02-04T06:09:20;2.30;;;2.20;;
15183;SDS011;7693;49.266;7.104;2023-02-04T06:11:46;6.03;;;2.47;;
15183;SDS011;7693;49.266;7.104;2023-02-04T06:14:11;3.00;;;2.80;;
15183;SDS011;7693;49.266;7.104;2023-02-04T06:16:37;4.37;;;3.80;;
15183;SDS011;7693;49.266;7.104;2023-02-04T06:19:02;3.87;;;3.57;;
15183;SDS011;7693;49.266;7.104;2023-02-04T06:21:28;3.90;;;3.70;;
15183;SDS011;7693;49.266;7.104;2023-02-04T06:23:53;2.90;;;2.67;;
15183;SDS011;7693;49.266;7.104;2023-02-04T06:26:19;4.23;;;2.70;;
15183;SDS011;7693;49.266;7.104;2023-02-04T06:28:44;2.60;;;2.20;;
15183;SDS011;7693;49.266;7.104;2023-02-04T06:31:10;2.77;;;2.57;;
15183;SDS011;7693;49.266;7.104;2023-02-04T06:33:36;2.47;;;2.37;;
15183;SDS011;7693;49.266;7.104;2023-02-04T06:36:02;2.40;;;2.30;;
15183;SDS011;7693;49.266;7.104;2023-02-04T06:38:28;3.63;;;3.43;;
15183;SDS011;7693;49.266;7.104;2023-02-04T06:40:54;3.77;;;3.60;;
15183;SDS011;7693;49.266;7.104;2023-02-04T06:43:19;3.87;;;3.67;;
15183;SDS011;7693;49.266;7.104;2023-02-04T06:45:46;4.00;;;3.13;;
15183;SDS011;7693;49.266;7.104;2023-02-04T06:48:12;4.00;;;3.80;;
15183;SDS011;7693;49.266;7.104;2023-02-04T06:50:38;4.47;;;4.17;;
15183;SDS011;7693;49.266;7.104;2023-02-04T06:53:03;4.43;;;4.13;;
15183;SDS011;7693;49.266;7.104;2023-02-04T06:55:29;4.03;;;3.50;;
15183;SDS011;7693;49.266;7.104;2023-02-04T06:57:54;3.40;;;3.27;;
15183;SDS011;7693;49.266;7.104;2023-02-04T07:00:20;3.50;;;3.30;;
15183;SDS011;7693;49.266;7.104;2023-02-04T07:02:46;3.93;;;3.63;;
15183;SDS011;7693;49.266;7.104;2023-02-04T07:05:11;4.63;;;3.90;;
15183;SDS011;7693;49.266;7.104;2023-02-04T07:07:37;4.17;;;3.87;;
15183;SDS011;7693;49.266;7.104;2023-02-04T07:10:03;4.27;;;4.00;;
15183;SDS011;7693;49.266;7.104;2023-02-04T07:12:28;4.80;;;4.43;;
15183;SDS011;7693;49.266;7.104;2023-02-04T07:14:54;16.73;;;15.53;;
15183;SDS011;7693;49.266;7.104;2023-02-04T07:17:20;21.30;;;19.40;;
15183;SDS011;7693;49.266;7.104;2023-02-04T07:19:46;31.70;;;29.30;;
15183;SDS011;7693;49.266;7.104;2023-02-04T07:22:12;30.73;;;28.30;;
15183;SDS011;7693;49.266;7.104;2023-02-04T07:24:37;21.93;;;20.13;;
15183;SDS011;7693;49.266;7.104;2023-02-04T07:27:03;16.73;;;15.43;;
15183;SDS011;7693;49.266;7.104;2023-02-04T07:29:28;14.07;;;13.07;;
15183;SDS011;7693;49.266;7.104;2023-02-04T07:31:54;19.67;;;18.07;;
15183;SDS011;7693;49.266;7.104;2023-02-04T07:34:19;11.53;;;10.57;;
15183;SDS011;7693;49.266;7.104;2023-02-04T07:36:45;11.23;;;9.43;;
15183;SDS011;7693;49.266;7.104;2023-02-04T07:39:11;10.50;;;9.80;;
15183;SDS011;7693;49.266;7.104;2023-02-04T07:41:36;7.90;;;7.40;;
15183;SDS011;7693;49.266;7.104;2023-02-04T07:44:02;9.20;;;8.50;;
15183;SDS011;7693;49.266;7.104;2023-02-04T07:46:28;7.77;;;7.27;;
15183;SDS011;7693;49.266;7.104;2023-02-04T07:48:54;9.33;;;8.53;;
15183;SDS011;7693;49.266;7.104;2023-02-04T07:51:20;5.87;;;5.43;;
15183;SDS011;7693;49.266;7.104;2023-02-04T07:53:45;6.40;;;5.90;;
15183;SDS011;7693;49.266;7.104;2023-02-04T07:56:11;6.90;;;6.37;;
15183;SDS011;7693;49.266;7.104;2023-02-04T07:58:36;4.40;;;4.10;;
15183;SDS011;7693;49.266;7.104;2023-02-04T08:01:02;6.73;;;6.23;;
15183;SDS011;7693;49.266;7.104;2023-02-04T08:03:28;7.90;;;6.70;;
15183;SDS011;7693;49.266;7.104;2023-02-04T08:05:53;5.63;;;5.17;;
15183;SDS011;7693;49.266;7.104;2023-02-04T08:08:19;6.03;;;5.43;;
15183;SDS011;7693;49.266;7.104;2023-02-04T08:10:45;6.40;;;5.80;;
15183;SDS011;7693;49.266;7.104;2023-02-04T08:13:11;6.00;;;5.20;;
15183;SDS011;7693;49.266;7.104;2023-02-04T08:15:36;6.73;;;5.97;;
15183;SDS011;7693;49.266;7.104;2023-02-04T08:18:02;7.20;;;5.40;;
15183;SDS011;7693;49.266;7.104;2023-02-04T08:20:28;5.50;;;5.00;;
15183;SDS011;7693;49.266;7.104;2023-02-04T08:22:54;5.27;;;4.77;;
15183;SDS011;7693;49.266;7.104;2023-02-04T08:25:20;4.20;;;3.83;;
15183;SDS011;7693;49.266;7.104;2023-02-04T08:27:45;3.47;;;3.23;;
15183;SDS011;7693;49.266;7.104;2023-02-04T08:30:11;3.97;;;3.77;;
15183;SDS011;7693;49.266;7.104;2023-02-04T08:32:37;7.10;;;6.50;;
15183;SDS011;7693;49.266;7.104;2023-02-04T08:35:03;5.40;;;4.90;;
15183;SDS011;7693;49.266;7.104;2023-02-04T08:37:29;21.47;;;16.23;;
15183;SDS011;7693;49.266;7.104;2023-02-04T08:39:55;69.43;;;47.70;;
15183;SDS011;7693;49.266;7.104;2023-02-04T08:42:21;22.37;;;17.40;;
15183;SDS011;7693;49.266;7.104;2023-02-04T08:44:47;17.23;;;15.47;;
15183;SDS011;7693;49.266;7.104;2023-02-04T08:47:12;9.43;;;8.30;;
15183;SDS011;7693;49.266;7.104;2023-02-04T08:49:38;13.90;;;12.57;;
15183;SDS011;7693;49.266;7.104;2023-02-04T08:52:04;7.27;;;5.33;;
15183;SDS011;7693;49.266;7.104;2023-02-04T08:54:31;6.67;;;5.70;;
15183;SDS011;7693;49.266;7.104;2023-02-04T08:56:58;12.90;;;11.00;;
15183;SDS011;7693;49.266;7.104;2023-02-04T08:59:24;6.77;;;5.23;;
15183;SDS011;7693;49.266;7.104;2023-02-04T09:01:50;4.73;;;3.93;;
15183;SDS011;7693;49.266;7.104;2023-02-04T09:04:19;3.87;;;3.43;;
15183;SDS011;7693;49.266;7.104;2023-02-04T09:06:46;3.53;;;3.23;;
15183;SDS011;7693;49.266;7.104;2023-02-04T09:09:13;4.40;;;3.67;;
15183;SDS011;7693;49.266;7.104;2023-02-04T09:11:38;3.60;;;3.30;;
15183;SDS011;7693;49.266;7.104;2023-02-04T09:14:04;3.90;;;3.30;;
15183;SDS011;7693;49.266;7.104;2023-02-04T09:16:30;3.97;;;3.40;;
15183;SDS011;7693;49.266;7.104;2023-02-04T09:18:56;4.60;;;3.20;;
15183;SDS011;7693;49.266;7.104;2023-02-04T09:21:23;4.27;;;3.10;;
15183;SDS011;7693;49.266;7.104;2023-02-04T09:23:48;3.30;;;2.80;;
15183;SDS011;7693;49.266;7.104;2023-02-04T09:26:14;5.90;;;3.40;;
15183;SDS011;7693;49.266;7.104;2023-02-04T09:28:40;4.80;;;3.23;;
15183;SDS011;7693;49.266;7.104;2023-02-04T09:31:05;4.93;;;2.90;;
15183;SDS011;7693;49.266;7.104;2023-02-04T09:33:32;5.00;;;2.80;;
15183;SDS011;7693;49.266;7.104;2023-02-04T09:35:58;2.70;;;2.50;;
15183;SDS011;7693;49.266;7.104;2023-02-04T09:38:24;7.50;;;3.50;;
15183;SDS011;7693;49.266;7.104;2023-02-04T09:40:54;4.10;;;3.10;;
15183;SDS011;7693;49.266;7.104;2023-02-04T09:43:26;5.23;;;3.23;;
15183;SDS011;7693;49.266;7.104;2023-02-04T09:45:54;5.83;;;3.80;;
15183;SDS011;7693;49.266;7.104;2023-02-04T09:48:21;3.20;;;2.87;;
15183;SDS011;7693;49.266;7.104;2023-02-04T09:50:47;5.97;;;3.50;;
15183;SDS011;7693;49.266;7.104;2023-02-04T09:53:14;6.47;;;3.73;;
15183;SDS011;7693;49.266;7.104;2023-02-04T09:55:45;4.70;;;3.80;;
15183;SDS011;7693;49.266;7.104;2023-02-04T09:58:16;5.93;;;3.50;;
15183;SDS011;7693;49.266;7.104;2023-02-04T10:00:47;9.60;;;4.07;;
15183;SDS011;7693;49.266;7.104;2023-02-04T10:03:20;6.20;;;3.50;;
15183;SDS011;7693;49.266;7.104;2023-02-04T10:05:47;5.87;;;3.70;;
15183;SDS011;7693;49.266;7.104;2023-02-04T10:08:17;5.53;;;3.77;;
15183;SDS011;7693;49.266;7.104;2023-02-04T10:10:45;13.33;;;5.10;;
15183;SDS011;7693;49.266;7.104;2023-02-04T10:13:17;9.00;;;5.07;;
15183;SDS011;7693;49.266;7.104;2023-02-04T10:15:45;13.03;;;5.40;;
15183;SDS011;7693;49.266;7.104;2023-02-04T10:18:15;6.17;;;3.93;;
15183;SDS011;7693;49.266;7.104;2023-02-04T10:20:49;9.40;;;4.10;;
15183;SDS011;7693;49.266;7.104;2023-02-04T10:23:16;11.70;;;5.20;;
15183;SDS011;7693;49.266;7.104;2023-02-04T10:25:42;10.63;;;5.40;;
15183;SDS011;7693;49.266;7.104;2023-02-04T10:28:07;9.03;;;4.80;;
15183;SDS011;7693;49.266;7.104;2023-02-04T10:30:37;8.53;;;4.60;;
15183;SDS011;7693;49.266;7.104;2023-02-04T10:33:11;10.33;;;5.40;;
15183;SDS011;7693;49.266;7.104;2023-02-04T10:35:49;12.83;;;4.67;;
15183;SDS011;7693;49.266;7.104;2023-02-04T10:38:15;10.00;;;5.33;;
15183;SDS011;7693;49.266;7.104;2023-02-04T10:40:41;9.07;;;5.27;;
15183;SDS011;7693;49.266;7.104;2023-02-04T10:43:13;10.57;;;4.60;;
15183;SDS011;7693;49.266;7.104;2023-02-04T10:45:54;12.43;;;5.50;;
15183;SDS011;7693;49.266;7.104;2023-02-04T10:48:25;10.53;;;5.03;;
15183;SDS011;7693;49.266;7.104;2023-02-04T10:50:53;12.03;;;5.33;;
15183;SDS011;7693;49.266;7.104;2023-02-04T10:53:21;8.33;;;5.57;;
15183;SDS011;7693;49.266;7.104;2023-02-04T10:56:14;11.23;;;5.57;;
15183;SDS011;7693;49.266;7.104;2023-02-04T10:58:42;11.00;;;5.30;;
15183;SDS011;7693;49.266;7.104;2023-02-04T11:01:09;9.00;;;5.33;;
15183;SDS011;7693;49.266;7.104;2023-02-04T13:54:38;12.27;;;7.10;;
15183;SDS011;7693;49.266;7.104;2023-02-04T13:57:05;15.33;;;5.87;;
15183;SDS011;7693;49.266;7.104;2023-02-04T13:59:30;9.57;;;5.73;;
15183;SDS011;7693;49.266;7.104;2023-02-04T14:01:56;10.00;;;5.73;;
15183;SDS011;7693;49.266;7.104;2023-02-04T14:04:22;12.93;;;5.30;;
15183;SDS011;7693;49.266;7.104;2023-02-04T14:06:47;9.33;;;5.20;;
15183;SDS011;7693;49.266;7.104;2023-02-04T14:09:13;13.07;;;5.80;;
15183;SDS011;7693;49.266;7.104;2023-02-04T14:11:39;13.43;;;5.53;;
15183;SDS011;7693;49.266;7.104;2023-02-04T14:14:04;12.50;;;5.83;;
15183;SDS011;7693;49.266;7.104;2023-02-04T14:16:30;12.87;;;6.00;;
15183;SDS011;7693;49.266;7.104;2023-02-04T14:18:56;16.33;;;6.00;;
15183;SDS011;7693;49.266;7.104;2023-02-04T14:21:22;12.13;;;6.00;;
15183;SDS011;7693;49.266;7.104;2023-02-04T14:23:47;13.70;;;5.73;;
15183;SDS011;7693;49.266;7.104;2023-02-04T14:26:13;12.60;;;5.63;;
15183;SDS011;7693;49.266;7.104;2023-02-04T14:28:38;11.10;;;5.90;;
15183;SDS011;7693;49.266;7.104;2023-02-04T14:31:04;8.60;;;5.67;;
15183;SDS011;7693;49.266;7.104;2023-02-04T14:33:30;14.63;;;5.60;;
15183;SDS011;7693;49.266;7.104;2023-02-04T14:35:55;12.50;;;5.40;;
15183;SDS011;7693;49.266;7.104;2023-02-04T14:38:21;11.07;;;5.70;;
15183;SDS011;7693;49.266;7.104;2023-02-04T14:40:46;15.13;;;6.10;;
15183;SDS011;7693;49.266;7.104;2023-02-04T14:43:12;10.17;;;5.50;;
15183;SDS011;7693;49.266;7.104;2023-02-04T14:45:38;11.63;;;5.90;;
15183;SDS011;7693;49.266;7.104;2023-02-04T14:48:04;10.73;;;5.53;;
15183;SDS011;7693;49.266;7.104;2023-02-04T14:50:31;8.63;;;6.00;;
15183;SDS011;7693;49.266;7.104;2023-02-04T14:52:56;9.90;;;5.83;;
15183;SDS011;7693;49.266;7.104;2023-02-04T14:55:22;13.47;;;6.90;;
15183;SDS011;7693;49.266;7.104;2023-02-04T14:57:48;48.63;;;31.73;;
15183;SDS011;7693;49.266;7.104;2023-02-04T15:00:14;21.43;;;13.87;;
15183;SDS011;7693;49.266;7.104;2023-02-04T15:02:40;22.50;;;8.17;;
15183;SDS011;7693;49.266;7.104;2023-02-04T15:05:06;18.53;;;9.87;;
15183;SDS011;7693;49.266;7.104;2023-02-04T15:07:32;12.30;;;6.73;;
15183;SDS011;7693;49.266;7.104;2023-02-04T15:09:58;105.23;;;77.90;;
15183;SDS011;7693;49.266;7.104;2023-02-04T15:12:24;52.43;;;35.13;;
15183;SDS011;7693;49.266;7.104;2023-02-04T15:14:50;18.20;;;13.00;;
15183;SDS011;7693;49.266;7.104;2023-02-04T15:17:15;16.47;;;7.43;;
15183;SDS011;7693;49.266;7.104;2023-02-04T15:19:42;14.00;;;6.77;;
15183;SDS011;7693;49.266;7.104;2023-02-04T15:22:08;10.83;;;5.83;;
15183;SDS011;7693;49.266;7.104;2023-02-04T15:24:34;13.83;;;5.80;;
15183;SDS011;7693;49.266;7.104;2023-02-04T15:26:59;14.87;;;6.63;;
15183;SDS011;7693;49.266;7.104;2023-02-04T15:29:25;13.37;;;6.60;;
15183;SDS011;7693;49.266;7.104;2023-02-04T15:31:50;14.03;;;6.50;;
15183;SDS011;7693;49.266;7.104;2023-02-04T15:34:16;13.80;;;6.43;;
15183;SDS011;7693;49.266;7.104;2023-02-04T15:36:41;10.17;;;6.07;;
15183;SDS011;7693;49.266;7.104;2023-02-04T15:39:07;16.70;;;9.53;;
15183;SDS011;7693;49.266;7.104;2023-02-04T15:41:33;12.47;;;5.87;;
15183;SDS011;7693;49.266;7.104;2023-02-04T15:43:58;24.13;;;7.27;;
15183;SDS011;7693;49.266;7.104;2023-02-04T15:46:24;13.57;;;5.97;;
15183;SDS011;7693;49.266;7.104;2023-02-04T15:48:49;14.63;;;6.27;;
15183;SDS011;7693;49.266;7.104;2023-02-04T15:51:15;10.83;;;6.10;;
15183;SDS011;7693;49.266;7.104;2023-02-04T15:53:40;13.83;;;6.37;;
15183;SDS011;7693;49.266;7.104;2023-02-04T15:56:06;14.30;;;7.57;;
15183;SDS011;7693;49.266;7.104;2023-02-04T15:58:31;13.13;;;7.67;;
15183;SDS011;7693;49.266;7.104;2023-02-04T16:00:57;12.17;;;7.10;;
15183;SDS011;7693;49.266;7.104;2023-02-04T16:03:24;12.87;;;7.27;;
15183;SDS011;7693;49.266;7.104;2023-02-04T16:05:49;17.40;;;7.17;;
15183;SDS011;7693;49.266;7.104;2023-02-04T16:08:16;12.93;;;6.80;;
15183;SDS011;7693;49.266;7.104;2023-02-04T16:10:41;15.97;;;8.60;;
15183;SDS011;7693;49.266;7.104;2023-02-04T16:13:07;17.03;;;7.77;;
15183;SDS011;7693;49.266;7.104;2023-02-04T16:15:32;11.30;;;6.37;;
15183;SDS011;7693;49.266;7.104;2023-02-04T16:17:58;19.17;;;7.50;;
15183;SDS011;7693;49.266;7.104;2023-02-04T16:20:24;12.07;;;6.43;;
15183;SDS011;7693;49.266;7.104;2023-02-04T16:22:49;15.77;;;7.70;;
15183;SDS011;7693;49.266;7.104;2023-02-04T16:25:15;14.27;;;7.73;;
15183;SDS011;7693;49.266;7.104;2023-02-04T16:27:40;15.43;;;7.67;;
15183;SDS011;7693;49.266;7.104;2023-02-04T16:30:06;11.63;;;6.07;;
15183;SDS011;7693;49.266;7.104;2023-02-04T16:32:32;14.53;;;6.57;;
15183;SDS011;7693;49.266;7.104;2023-02-04T16:34:58;11.63;;;6.80;;
15183;SDS011;7693;49.266;7.104;2023-02-04T16:37:24;12.83;;;6.50;;
15183;SDS011;7693;49.266;7.104;2023-02-04T16:39:50;10.33;;;5.87;;
15183;SDS011;7693;49.266;7.104;2023-02-04T16:42:16;12.20;;;6.53;;
15183;SDS011;7693;49.266;7.104;2023-02-04T16:44:42;11.97;;;6.60;;
15183;SDS011;7693;49.266;7.104;2023-02-04T16:47:08;13.37;;;7.13;;
15183;SDS011;7693;49.266;7.104;2023-02-04T16:49:37;14.63;;;7.50;;
15183;SDS011;7693;49.266;7.104;2023-02-04T16:52:03;15.03;;;6.60;;
15183;SDS011;7693;49.266;7.104;2023-02-04T16:54:29;18.33;;;7.50;;
15183;SDS011;7693;49.266;7.104;2023-02-04T16:56:55;12.07;;;6.10;;
15183;SDS011;7693;49.266;7.104;2023-02-04T16:59:24;16.03;;;6.97;;
15183;SDS011;7693;49.266;7.104;2023-02-04T17:01:50;15.57;;;7.50;;
15183;SDS011;7693;49.266;7.104;2023-02-04T17:04:16;11.07;;;6.23;;
15183;SDS011;7693;49.266;7.104;2023-02-04T17:06:41;15.53;;;7.73;;
15183;SDS011;7693;49.266;7.104;2023-02-04T17:09:07;16.03;;;6.50;;
15183;SDS011;7693;49.266;7.104;2023-02-04T17:11:33;15.87;;;7.13;;
15183;SDS011;7693;49.266;7.104;2023-02-04T17:14:03;14.97;;;6.87;;
15183;SDS011;7693;49.266;7.104;2023-02-04T17:16:30;10.27;;;5.73;;
15183;SDS011;7693;49.266;7.104;2023-02-04T17:18:56;15.23;;;6.83;;
15183;SDS011;7693;49.266;7.104;2023-02-04T17:21:23;13.50;;;7.83;;
15183;SDS011;7693;49.266;7.104;2023-02-04T17:23:51;11.20;;;7.47;;
15183;SDS011;7693;49.266;7.104;2023-02-04T17:26:17;15.53;;;7.47;;
15183;SDS011;7693;49.266;7.104;2023-02-04T17:28:43;13.43;;;8.07;;
15183;SDS011;7693;49.266;7.104;2023-02-04T17:31:09;16.97;;;8.50;;
15183;SDS011;7693;49.266;7.104;2023-02-04T17:33:35;17.53;;;8.67;;
15183;SDS011;7693;49.266;7.104;2023-02-04T17:36:01;13.60;;;8.53;;
15183;SDS011;7693;49.266;7.104;2023-02-04T17:38:27;10.30;;;7.30;;
15183;SDS011;7693;49.266;7.104;2023-02-04T17:40:53;16.73;;;9.70;;
15183;SDS011;7693;49.266;7.104;2023-02-04T17:43:20;24.60;;;10.83;;
15183;SDS011;7693;49.266;7.104;2023-02-04T17:45:46;18.07;;;9.83;;
15183;SDS011;7693;49.266;7.104;2023-02-04T17:48:11;22.53;;;11.53;;
15183;SDS011;7693;49.266;7.104;2023-02-04T17:50:37;16.90;;;11.53;;
15183;SDS011;7693;49.266;7.104;2023-02-04T17:53:03;21.47;;;13.03;;
15183;SDS011;7693;49.266;7.104;2023-02-04T17:55:30;30.03;;;14.97;;
15183;SDS011;7693;49.266;7.104;2023-02-04T17:57:58;20.83;;;13.27;;
15183;SDS011;7693;49.266;7.104;2023-02-04T18:00:27;23.73;;;12.60;;
15183;SDS011;7693;49.266;7.104;2023-02-04T18:02:54;20.40;;;12.47;;
15183;SDS011;7693;49.266;7.104;2023-02-04T18:05:24;24.23;;;15.20;;
15183;SDS011;7693;49.266;7.104;2023-02-04T18:07:52;22.20;;;13.10;;
15183;SDS011;7693;49.266;7.104;2023-02-04T18:10:46;24.57;;;11.77;;
15183;SDS011;7693;49.266;7.104;2023-02-04T18:13:19;15.90;;;11.00;;
15183;SDS011;7693;49.266;7.104;2023-02-04T18:15:49;18.57;;;13.17;;
15183;SDS011;7693;49.266;7.104;2023-02-04T18:18:38;24.97;;;15.03;;
15183;SDS011;7693;49.266;7.104;2023-02-04T18:21:24;16.47;;;10.37;;
15183;SDS011;7693;49.266;7.104;2023-02-04T18:23:55;18.20;;;12.20;;
15183;SDS011;7693;49.266;7.104;2023-02-04T18:26:33;14.10;;;10.77;;
15183;SDS011;7693;49.266;7.104;2023-02-04T18:31:54;18.57;;;12.93;;
15183;SDS011;7693;49.266;7.104;2023-02-04T18:34:33;20.77;;;13.67;;
15183;SDS011;7693;49.266;7.104;2023-02-04T18:43:17;17.67;;;11.47;;
15183;SDS011;7693;49.266;7.104;2023-02-04T18:45:38;17.23;;;11.40;;
15183;SDS011;7693;49.266;7.104;2023-02-04T18:50:42;15.60;;;10.57;;
15183;SDS011;7693;49.266;7.104;2023-02-04T18:55:40;18.60;;;10.20;;
15183;SDS011;7693;49.266;7.104;2023-02-04T19:01:04;13.80;;;7.37;;
15183;SDS011;7693;49.266;7.104;2023-02-04T19:03:43;17.80;;;8.60;;
15183;SDS011;7693;49.266;7.104;2023-02-04T19:06:58;14.07;;;9.47;;
15183;SDS011;7693;49.266;7.104;2023-02-04T19:11:38;14.43;;;8.43;;
15183;SDS011;7693;49.266;7.104;2023-02-04T19:14:15;20.20;;;10.30;;
15183;SDS011;7693;49.266;7.104;2023-02-04T19:16:45;17.50;;;10.07;;
15183;SDS011;7693;49.266;7.104;2023-02-04T19:22:00;13.83;;;9.97;;
15183;SDS011;7693;49.266;7.104;2023-02-04T19:24:43;14.37;;;8.00;;
15183;SDS011;7693;49.266;7.104;2023-02-04T19:29:47;14.13;;;7.60;;
15183;SDS011;7693;49.266;7.104;2023-02-04T19:32:27;9.63;;;7.50;;
15183;SDS011;7693;49.266;7.104;2023-02-04T19:35:18;13.67;;;8.20;;
15183;SDS011;7693;49.266;7.104;2023-02-04T19:37:51;13.20;;;8.83;;
15183;SDS011;7693;49.266;7.104;2023-02-04T19:40:29;17.53;;;10.17;;
15183;SDS011;7693;49.266;7.104;2023-02-04T19:43:01;20.37;;;10.63;;
15183;SDS011;7693;49.266;7.104;2023-02-04T19:45:45;19.37;;;10.70;;
15183;SDS011;7693;49.266;7.104;2023-02-04T19:50:51;19.70;;;10.37;;
15183;SDS011;7693;49.266;7.104;2023-02-04T19:53:18;21.70;;;11.03;;
15183;SDS011;7693;49.266;7.104;2023-02-04T19:55:51;18.33;;;11.40;;
15183;SDS011;7693;49.266;7.104;2023-02-04T20:05:58;23.73;;;18.27;;
15183;SDS011;7693;49.266;7.104;2023-02-04T20:08:46;29.33;;;19.73;;
15183;SDS011;7693;49.266;7.104;2023-02-04T20:24:32;46.80;;;33.47;;
15183;SDS011;7693;49.266;7.104;2023-02-04T20:27:10;47.77;;;35.07;;
15183;SDS011;7693;49.266;7.104;2023-02-04T20:29:40;51.83;;;36.80;;
15183;SDS011;7693;49.266;7.104;2023-02-04T20:37:39;44.77;;;33.43;;
15183;SDS011;7693;49.266;7.104;2023-02-04T20:40:17;48.67;;;31.23;;
15183;SDS011;7693;49.266;7.104;2023-02-04T20:42:48;45.73;;;32.63;;
15183;SDS011;7693;49.266;7.104;2023-02-04T20:47:52;45.33;;;32.17;;
15183;SDS011;7693;49.266;7.104;2023-02-04T20:53:05;50.73;;;33.60;;
15183;SDS011;7693;49.266;7.104;2023-02-04T20:55:34;48.90;;;34.13;;
15183;SDS011;7693;49.266;7.104;2023-02-04T21:00:47;54.00;;;40.43;;
15183;SDS011;7693;49.266;7.104;2023-02-04T21:05:53;49.53;;;36.10;;
15183;SDS011;7693;49.266;7.104;2023-02-04T21:08:23;44.13;;;30.13;;
15183;SDS011;7693;49.266;7.104;2023-02-04T21:11:06;43.57;;;29.63;;
15183;SDS011;7693;49.266;7.104;2023-02-04T21:13:32;48.73;;;28.80;;
15183;SDS011;7693;49.266;7.104;2023-02-04T21:15:58;83.23;;;56.27;;
15183;SDS011;7693;49.266;7.104;2023-02-04T21:18:24;34.37;;;23.47;;
15183;SDS011;7693;49.266;7.104;2023-02-04T21:20:50;38.90;;;23.93;;
15183;SDS011;7693;49.266;7.104;2023-02-04T21:23:15;35.10;;;22.67;;
15183;SDS011;7693;49.266;7.104;2023-02-04T21:25:42;30.53;;;20.43;;
15183;SDS011;7693;49.266;7.104;2023-02-04T21:28:08;33.40;;;21.00;;
15183;SDS011;7693;49.266;7.104;2023-02-04T21:30:34;32.17;;;22.33;;
15183;SDS011;7693;49.266;7.104;2023-02-04T21:33:00;33.77;;;22.17;;
15183;SDS011;7693;49.266;7.104;2023-02-04T21:35:26;33.53;;;22.97;;
15183;SDS011;7693;49.266;7.104;2023-02-04T21:37:52;30.07;;;22.53;;
15183;SDS011;7693;49.266;7.104;2023-02-04T21:40:19;32.87;;;21.20;;
15183;SDS011;7693;49.266;7.104;2023-02-04T21:42:47;34.50;;;22.90;;
15183;SDS011;7693;49.266;7.104;2023-02-04T21:45:13;37.77;;;24.10;;
15183;SDS011;7693;49.266;7.104;2023-02-04T21:47:41;39.33;;;24.30;;
15183;SDS011;7693;49.266;7.104;2023-02-04T21:50:07;41.23;;;24.13;;
15183;SDS011;7693;49.266;7.104;2023-02-04T21:52:33;40.47;;;23.67;;
15183;SDS011;7693;49.266;7.104;2023-02-04T21:54:59;39.40;;;24.47;;
15183;SDS011;7693;49.266;7.104;2023-02-04T21:57:25;40.77;;;25.87;;
15183;SDS011;7693;49.266;7.104;2023-02-04T21:59:50;39.53;;;25.23;;
15183;SDS011;7693;49.266;7.104;2023-02-04T22:02:18;40.03;;;24.90;;
15183;SDS011;7693;49.266;7.104;2023-02-04T22:04:44;36.33;;;25.03;;
15183;SDS011;7693;49.266;7.104;2023-02-04T22:07:09;166.97;;;122.53;;
15183;SDS011;7693;49.266;7.104;2023-02-04T22:09:35;40.53;;;26.20;;
15183;SDS011;7693;49.266;7.104;2023-02-04T22:12:01;38.00;;;26.23;;
15183;SDS011;7693;49.266;7.104;2023-02-04T22:14:28;41.57;;;27.07;;
15183;SDS011;7693;49.266;7.104;2023-02-04T22:16:54;43.27;;;26.60;;
15183;SDS011;7693;49.266;7.104;2023-02-04T22:19:20;38.80;;;25.30;;
15183;SDS011;7693;49.266;7.104;2023-02-04T22:21:45;41.50;;;24.40;;
15183;SDS011;7693;49.266;7.104;2023-02-04T22:24:11;41.00;;;25.93;;
15183;SDS011;7693;49.266;7.104;2023-02-04T22:26:36;35.43;;;23.77;;
15183;SDS011;7693;49.266;7.104;2023-02-04T22:29:02;40.60;;;24.23;;
15183;SDS011;7693;49.266;7.104;2023-02-04T22:31:27;40.20;;;25.10;;
15183;SDS011;7693;49.266;7.104;2023-02-04T22:33:53;44.43;;;26.90;;
15183;SDS011;7693;49.266;7.104;2023-02-04T22:36:18;38.80;;;24.40;;
15183;SDS011;7693;49.266;7.104;2023-02-04T22:38:44;36.03;;;23.40;;
15183;SDS011;7693;49.266;7.104;2023-02-04T22:41:13;37.53;;;23.60;;
15183;SDS011;7693;49.266;7.104;2023-02-04T22:43:39;40.47;;;25.13;;
15183;SDS011;7693;49.266;7.104;2023-02-04T22:46:04;39.10;;;25.10;;
15183;SDS011;7693;49.266;7.104;2023-02-04T22:48:30;35.20;;;24.80;;
15183;SDS011;7693;49.266;7.104;2023-02-04T22:50:55;42.57;;;25.43;;
15183;SDS011;7693;49.266;7.104;2023-02-04T22:53:21;43.57;;;26.03;;
15183;SDS011;7693;49.266;7.104;2023-02-04T22:55:46;43.97;;;25.97;;
15183;SDS011;7693;49.266;7.104;2023-02-04T22:58:12;38.47;;;25.33;;
15183;SDS011;7693;49.266;7.104;2023-02-04T23:00:37;44.97;;;26.90;;
15183;SDS011;7693;49.266;7.104;2023-02-04T23:03:05;46.73;;;26.23;;
15183;SDS011;7693;49.266;7.104;2023-02-04T23:05:31;41.17;;;26.07;;
15183;SDS011;7693;49.266;7.104;2023-02-04T23:07:56;38.50;;;26.13;;
15183;SDS011;7693;49.266;7.104;2023-02-04T23:10:22;45.77;;;29.10;;
15183;SDS011;7693;49.266;7.104;2023-02-04T23:12:47;43.53;;;26.87;;
15183;SDS011;7693;49.266;7.104;2023-02-04T23:15:13;39.03;;;27.20;;
